RYR33MM EPMO-EHBK
Flight info
| Callsign | RYR33MM |
|---|---|
| Flight time | 1h 38m |
| Altitude | 38000 |
| Route | OLILA L621 SOMOR DCT TADAK L29 ALUKA DCT HLZ DCT PIROT T851 DENOL/N0419F260 T851 HMM DCT PISAP/N0384F200 T883 ROTEK DCT MAS |
| Aircraft | B738/M-VGDW/C |
Departure
| Time | 2026-05-06 05:16 |
|---|---|
| Airport | Warsaw Modlin Airport (EPMO) |
Arrival
| Time | 2026-05-06 06:54 |
|---|---|
| Airport | Maastricht Aachen Airport (EHBK) |
| Time | Latitude | Longitude | Altitude | Speed | Heading |
|---|---|---|---|---|---|
| 2026-05-06 05:16 | 52.64600 | 20.68854 | 10595 ft | 320 kts | 280° |
| 2026-05-06 05:16 | 52.65179 | 20.65194 | 10782 ft | 342 kts | 280° |
| 2026-05-06 05:17 | 52.65790 | 20.61298 | 11070 ft | 359 kts | 280° |
| 2026-05-06 05:17 | 52.66433 | 20.57282 | 11683 ft | 364 kts | 281° |
| 2026-05-06 05:17 | 52.67091 | 20.53248 | 12503 ft | 364 kts | 281° |
| 2026-05-06 05:17 | 52.67757 | 20.49200 | 13233 ft | 368 kts | 281° |
| 2026-05-06 05:18 | 52.68431 | 20.45115 | 13906 ft | 371 kts | 281° |
| 2026-05-06 05:18 | 52.69101 | 20.41041 | 14518 ft | 374 kts | 281° |
| 2026-05-06 05:18 | 52.69782 | 20.36889 | 15150 ft | 377 kts | 281° |
| 2026-05-06 05:18 | 52.70657 | 20.32773 | 15747 ft | 386 kts | 295° |
| 2026-05-06 05:19 | 52.72278 | 20.29186 | 16391 ft | 394 kts | 308° |
| 2026-05-06 05:19 | 52.74117 | 20.25808 | 16981 ft | 397 kts | 308° |
| 2026-05-06 05:19 | 52.75991 | 20.22427 | 17562 ft | 401 kts | 309° |
| 2026-05-06 05:19 | 52.77882 | 20.19015 | 18146 ft | 404 kts | 308° |
| 2026-05-06 05:20 | 52.79778 | 20.15572 | 18654 ft | 407 kts | 308° |
| 2026-05-06 05:20 | 52.81683 | 20.12085 | 19166 ft | 409 kts | 308° |
| 2026-05-06 05:20 | 52.83572 | 20.08606 | 19657 ft | 412 kts | 308° |
| 2026-05-06 05:20 | 52.85494 | 20.05049 | 20147 ft | 415 kts | 308° |
| 2026-05-06 05:21 | 52.87422 | 20.01469 | 20642 ft | 418 kts | 308° |
| 2026-05-06 05:21 | 52.89363 | 19.97857 | 21125 ft | 421 kts | 308° |
| 2026-05-06 05:21 | 52.91316 | 19.94217 | 21587 ft | 424 kts | 308° |
| 2026-05-06 05:21 | 52.93281 | 19.90549 | 22058 ft | 427 kts | 308° |
| 2026-05-06 05:22 | 52.95256 | 19.86857 | 22510 ft | 429 kts | 308° |
| 2026-05-06 05:22 | 52.97250 | 19.83125 | 22948 ft | 432 kts | 308° |
| 2026-05-06 05:22 | 52.99229 | 19.79416 | 23381 ft | 435 kts | 308° |
| 2026-05-06 05:22 | 53.01240 | 19.75640 | 23757 ft | 437 kts | 308° |
| 2026-05-06 05:23 | 53.03265 | 19.71833 | 24139 ft | 439 kts | 308° |
| 2026-05-06 05:23 | 53.05291 | 19.68019 | 24515 ft | 441 kts | 308° |
| 2026-05-06 05:23 | 53.09344 | 19.60369 | 25225 ft | 445 kts | 307° |
| 2026-05-06 05:24 | 53.11396 | 19.56488 | 25579 ft | 447 kts | 307° |
| 2026-05-06 05:24 | 53.13454 | 19.52588 | 25921 ft | 449 kts | 307° |
| 2026-05-06 05:24 | 53.15521 | 19.48666 | 26258 ft | 450 kts | 307° |
| 2026-05-06 05:24 | 53.17592 | 19.44731 | 26582 ft | 452 kts | 307° |
| 2026-05-06 05:25 | 53.19665 | 19.40769 | 26902 ft | 454 kts | 306° |
| 2026-05-06 05:25 | 53.21415 | 19.36425 | 27186 ft | 449 kts | 292° |
| 2026-05-06 05:25 | 53.22554 | 19.31603 | 27519 ft | 445 kts | 282° |
| 2026-05-06 05:25 | 53.23096 | 19.26617 | 27814 ft | 441 kts | 271° |
| 2026-05-06 05:26 | 53.23258 | 19.21506 | 28118 ft | 442 kts | 269° |
| 2026-05-06 05:26 | 53.23384 | 19.16359 | 28387 ft | 444 kts | 269° |
| 2026-05-06 05:26 | 53.23505 | 19.11185 | 28669 ft | 446 kts | 269° |
| 2026-05-06 05:26 | 53.23635 | 19.06010 | 29067 ft | 445 kts | 269° |
| 2026-05-06 05:27 | 53.23773 | 19.00861 | 29546 ft | 442 kts | 269° |
| 2026-05-06 05:27 | 53.23917 | 18.95743 | 29980 ft | 440 kts | 269° |
| 2026-05-06 05:27 | 53.24063 | 18.90641 | 30287 ft | 440 kts | 269° |
| 2026-05-06 05:27 | 53.24209 | 18.85580 | 30564 ft | 440 kts | 269° |
| 2026-05-06 05:28 | 53.24356 | 18.80466 | 30870 ft | 440 kts | 269° |
| 2026-05-06 05:28 | 53.24500 | 18.75378 | 31216 ft | 438 kts | 269° |
| 2026-05-06 05:28 | 53.24642 | 18.70299 | 31547 ft | 437 kts | 269° |
| 2026-05-06 05:28 | 53.24781 | 18.65234 | 31835 ft | 437 kts | 269° |
| 2026-05-06 05:29 | 53.24918 | 18.60160 | 32128 ft | 436 kts | 269° |
| 2026-05-06 05:29 | 53.25053 | 18.55093 | 32445 ft | 435 kts | 269° |
| 2026-05-06 05:29 | 53.25184 | 18.50052 | 32762 ft | 434 kts | 269° |
| 2026-05-06 05:29 | 53.25313 | 18.45017 | 33053 ft | 433 kts | 268° |
| 2026-05-06 05:30 | 53.25440 | 18.39987 | 33348 ft | 432 kts | 268° |
| 2026-05-06 05:30 | 53.25565 | 18.34969 | 33650 ft | 431 kts | 268° |
| 2026-05-06 05:30 | 53.25685 | 18.30030 | 33910 ft | 430 kts | 268° |
| 2026-05-06 05:30 | 53.25805 | 18.25039 | 34149 ft | 430 kts | 268° |
| 2026-05-06 05:31 | 53.25922 | 18.20050 | 34389 ft | 429 kts | 268° |
| 2026-05-06 05:31 | 53.26037 | 18.15068 | 34618 ft | 428 kts | 268° |
| 2026-05-06 05:31 | 53.26149 | 18.10158 | 34842 ft | 427 kts | 268° |
| 2026-05-06 05:31 | 53.26259 | 18.05195 | 35075 ft | 426 kts | 268° |
| 2026-05-06 05:32 | 53.26368 | 18.00252 | 35287 ft | 426 kts | 268° |
| 2026-05-06 05:32 | 53.26474 | 17.95307 | 35513 ft | 425 kts | 268° |
| 2026-05-06 05:32 | 53.26578 | 17.90366 | 35717 ft | 425 kts | 268° |
| 2026-05-06 05:32 | 53.26679 | 17.85442 | 35929 ft | 424 kts | 268° |
| 2026-05-06 05:33 | 53.26779 | 17.80508 | 36123 ft | 424 kts | 268° |
| 2026-05-06 05:33 | 53.26843 | 17.77257 | 36252 ft | 423 kts | 268° |
| 2026-05-06 05:33 | 53.26970 | 17.70735 | 36520 ft | 422 kts | 268° |
| 2026-05-06 05:33 | 53.27064 | 17.65826 | 36702 ft | 422 kts | 268° |
| 2026-05-06 05:34 | 53.27155 | 17.60929 | 36895 ft | 422 kts | 268° |
| 2026-05-06 05:34 | 53.27214 | 17.57675 | 36986 ft | 422 kts | 268° |
| 2026-05-06 05:34 | 53.27301 | 17.52776 | 37133 ft | 422 kts | 268° |
| 2026-05-06 05:34 | 53.27387 | 17.47860 | 37309 ft | 422 kts | 268° |
| 2026-05-06 05:35 | 53.27471 | 17.42960 | 37494 ft | 421 kts | 268° |
| 2026-05-06 05:35 | 53.27553 | 17.38072 | 37655 ft | 421 kts | 268° |
| 2026-05-06 05:35 | 53.27632 | 17.33191 | 37777 ft | 419 kts | 268° |
| 2026-05-06 05:35 | 53.27710 | 17.28328 | 37788 ft | 418 kts | 268° |
| 2026-05-06 05:36 | 53.27857 | 17.18647 | 37804 ft | 417 kts | 268° |
| 2026-05-06 05:36 | 53.27996 | 17.09011 | 37799 ft | 418 kts | 268° |
| 2026-05-06 05:37 | 53.28130 | 16.99282 | 37798 ft | 419 kts | 268° |
| 2026-05-06 05:37 | 53.28129 | 16.89546 | 37798 ft | 418 kts | 262° |
| 2026-05-06 05:38 | 53.26993 | 16.80082 | 37792 ft | 416 kts | 255° |
| 2026-05-06 05:38 | 53.25652 | 16.70657 | 37802 ft | 416 kts | 254° |
| 2026-05-06 05:39 | 53.24330 | 16.61292 | 37790 ft | 418 kts | 255° |
| 2026-05-06 05:39 | 53.23009 | 16.51842 | 37795 ft | 418 kts | 255° |
| 2026-05-06 05:40 | 53.21687 | 16.42383 | 37812 ft | 419 kts | 255° |
| 2026-05-06 05:40 | 53.20356 | 16.32911 | 37792 ft | 420 kts | 254° |
| 2026-05-06 05:41 | 53.19012 | 16.23413 | 37787 ft | 421 kts | 254° |
| 2026-05-06 05:41 | 53.17661 | 16.13919 | 37785 ft | 420 kts | 254° |
| 2026-05-06 05:42 | 53.16308 | 16.04467 | 37789 ft | 418 kts | 254° |
| 2026-05-06 05:42 | 53.14961 | 15.95119 | 37789 ft | 417 kts | 254° |
| 2026-05-06 05:43 | 53.13602 | 15.85751 | 37791 ft | 415 kts | 254° |
| 2026-05-06 05:43 | 53.12230 | 15.76350 | 37786 ft | 415 kts | 253° |
| 2026-05-06 05:44 | 53.10867 | 15.67058 | 37781 ft | 415 kts | 253° |
| 2026-05-06 05:44 | 53.09490 | 15.57732 | 37782 ft | 415 kts | 253° |
| 2026-05-06 05:45 | 53.08106 | 15.48416 | 37781 ft | 415 kts | 253° |
| 2026-05-06 05:45 | 53.06712 | 15.39086 | 37779 ft | 416 kts | 253° |
| 2026-05-06 05:46 | 53.05309 | 15.29747 | 37772 ft | 416 kts | 253° |
| 2026-05-06 05:46 | 53.03902 | 15.20439 | 37776 ft | 418 kts | 253° |
| 2026-05-06 05:47 | 53.02477 | 15.11067 | 37777 ft | 419 kts | 253° |
| 2026-05-06 05:47 | 53.01046 | 15.01710 | 37779 ft | 421 kts | 253° |
| 2026-05-06 05:48 | 52.99583 | 14.92194 | 37767 ft | 424 kts | 253° |
| 2026-05-06 05:48 | 52.98123 | 14.82758 | 37764 ft | 425 kts | 253° |
| 2026-05-06 05:49 | 52.96647 | 14.73264 | 37773 ft | 425 kts | 252° |
| 2026-05-06 05:49 | 52.95161 | 14.63766 | 37771 ft | 425 kts | 252° |
| 2026-05-06 05:50 | 52.93665 | 14.54262 | 37762 ft | 426 kts | 252° |
| 2026-05-06 05:50 | 52.92160 | 14.44752 | 37760 ft | 426 kts | 252° |
| 2026-05-06 05:51 | 52.90664 | 14.35341 | 37771 ft | 425 kts | 252° |
| 2026-05-06 05:51 | 52.89194 | 14.25857 | 37763 ft | 425 kts | 254° |
| 2026-05-06 05:52 | 52.87888 | 14.16274 | 37768 ft | 425 kts | 255° |
| 2026-05-06 05:52 | 52.86603 | 14.06699 | 37762 ft | 426 kts | 254° |
| 2026-05-06 05:53 | 52.85301 | 13.97192 | 37764 ft | 426 kts | 254° |
| 2026-05-06 05:53 | 52.83967 | 13.87608 | 37769 ft | 427 kts | 254° |
| 2026-05-06 05:54 | 52.82622 | 13.78032 | 37763 ft | 427 kts | 254° |
| 2026-05-06 05:54 | 52.81269 | 13.68471 | 37760 ft | 427 kts | 254° |
| 2026-05-06 05:55 | 52.79916 | 13.58962 | 37758 ft | 428 kts | 254° |
| 2026-05-06 05:55 | 52.78542 | 13.49369 | 37768 ft | 429 kts | 254° |
| 2026-05-06 05:56 | 52.77159 | 13.39768 | 37751 ft | 429 kts | 254° |
| 2026-05-06 05:56 | 52.75777 | 13.30233 | 37759 ft | 429 kts | 253° |
| 2026-05-06 05:57 | 52.74375 | 13.20622 | 37760 ft | 429 kts | 253° |
| 2026-05-06 05:57 | 52.72974 | 13.11080 | 37757 ft | 430 kts | 253° |
| 2026-05-06 05:58 | 52.71557 | 13.01485 | 37758 ft | 430 kts | 253° |
| 2026-05-06 05:58 | 52.70128 | 12.91867 | 37759 ft | 431 kts | 253° |
| 2026-05-06 05:59 | 52.68688 | 12.82232 | 37753 ft | 432 kts | 253° |
| 2026-05-06 05:59 | 52.67241 | 12.72611 | 37759 ft | 433 kts | 253° |
| 2026-05-06 06:00 | 52.65786 | 12.62995 | 37755 ft | 434 kts | 253° |
| 2026-05-06 06:00 | 52.64314 | 12.53323 | 37757 ft | 435 kts | 253° |
| 2026-05-06 06:01 | 52.62840 | 12.43698 | 37756 ft | 436 kts | 253° |
| 2026-05-06 06:01 | 52.61348 | 12.34012 | 37757 ft | 437 kts | 253° |
| 2026-05-06 06:02 | 52.59843 | 12.24301 | 37755 ft | 437 kts | 253° |
| 2026-05-06 06:02 | 52.58332 | 12.14610 | 37751 ft | 438 kts | 253° |
| 2026-05-06 06:03 | 52.56820 | 12.04965 | 37757 ft | 438 kts | 253° |
| 2026-05-06 06:03 | 52.55290 | 11.95269 | 37759 ft | 438 kts | 253° |
| 2026-05-06 06:04 | 52.53750 | 11.85560 | 37758 ft | 438 kts | 253° |
| 2026-05-06 06:04 | 52.52201 | 11.75852 | 37762 ft | 439 kts | 253° |
| 2026-05-06 06:05 | 52.50654 | 11.66218 | 37763 ft | 439 kts | 253° |
| 2026-05-06 06:05 | 52.49091 | 11.56536 | 37763 ft | 439 kts | 253° |
| 2026-05-06 06:06 | 52.47518 | 11.46845 | 37762 ft | 439 kts | 253° |
| 2026-05-06 06:06 | 52.45947 | 11.37224 | 37768 ft | 439 kts | 252° |
| 2026-05-06 06:07 | 52.44355 | 11.27534 | 37768 ft | 439 kts | 252° |
| 2026-05-06 06:07 | 52.42770 | 11.17934 | 37768 ft | 439 kts | 252° |
| 2026-05-06 06:08 | 52.41168 | 11.08289 | 37775 ft | 439 kts | 252° |
| 2026-05-06 06:08 | 52.39555 | 10.98631 | 37773 ft | 439 kts | 252° |
| 2026-05-06 06:09 | 52.37939 | 10.88996 | 37776 ft | 438 kts | 252° |
| 2026-05-06 06:09 | 52.36314 | 10.79375 | 37773 ft | 439 kts | 252° |
| 2026-05-06 06:10 | 52.34547 | 10.69823 | 37777 ft | 438 kts | 250° |
| 2026-05-06 06:10 | 52.32684 | 10.60341 | 37773 ft | 438 kts | 250° |
| 2026-05-06 06:11 | 52.30831 | 10.50893 | 37777 ft | 438 kts | 250° |
| 2026-05-06 06:11 | 52.28980 | 10.41408 | 37763 ft | 438 kts | 250° |
| 2026-05-06 06:12 | 52.27126 | 10.31913 | 37767 ft | 438 kts | 250° |
| 2026-05-06 06:12 | 52.25275 | 10.22478 | 37782 ft | 438 kts | 250° |
| 2026-05-06 06:13 | 52.23404 | 10.12992 | 37771 ft | 439 kts | 250° |
| 2026-05-06 06:13 | 52.21516 | 10.03463 | 37767 ft | 440 kts | 250° |
| 2026-05-06 06:14 | 52.19638 | 9.94036 | 37772 ft | 440 kts | 250° |
| 2026-05-06 06:14 | 52.17740 | 9.84550 | 37773 ft | 440 kts | 250° |
| 2026-05-06 06:15 | 52.15832 | 9.75062 | 37784 ft | 440 kts | 250° |
| 2026-05-06 06:15 | 52.13928 | 9.65641 | 37786 ft | 441 kts | 250° |
| 2026-05-06 06:16 | 52.12002 | 9.56153 | 37777 ft | 442 kts | 250° |
| 2026-05-06 06:16 | 52.10061 | 9.46638 | 37777 ft | 443 kts | 250° |
| 2026-05-06 06:17 | 52.08105 | 9.37096 | 37766 ft | 444 kts | 250° |
| 2026-05-06 06:17 | 52.06159 | 9.27638 | 37761 ft | 443 kts | 250° |
| 2026-05-06 06:18 | 52.04559 | 9.17978 | 37780 ft | 443 kts | 257° |
| 2026-05-06 06:18 | 52.03386 | 9.08157 | 37763 ft | 442 kts | 257° |
| 2026-05-06 06:19 | 52.02218 | 8.98373 | 37753 ft | 441 kts | 257° |
| 2026-05-06 06:19 | 52.01019 | 8.88618 | 37764 ft | 440 kts | 257° |
| 2026-05-06 06:20 | 51.99802 | 8.78890 | 37767 ft | 439 kts | 257° |
| 2026-05-06 06:20 | 51.98576 | 8.69179 | 37760 ft | 439 kts | 256° |
| 2026-05-06 06:21 | 51.97350 | 8.59530 | 37773 ft | 439 kts | 256° |
| 2026-05-06 06:21 | 51.96107 | 8.49812 | 37786 ft | 441 kts | 256° |
| 2026-05-06 06:22 | 51.94846 | 8.40025 | 37780 ft | 444 kts | 256° |
| 2026-05-06 06:22 | 51.93580 | 8.30262 | 37770 ft | 446 kts | 256° |
| 2026-05-06 06:23 | 51.92510 | 8.22060 | 37770 ft | 446 kts | 256° |
| 2026-05-06 06:23 | 51.91006 | 8.10613 | 37781 ft | 446 kts | 256° |
| 2026-05-06 06:24 | 51.89914 | 8.02359 | 37787 ft | 446 kts | 256° |
| 2026-05-06 06:24 | 51.88613 | 7.92582 | 37787 ft | 446 kts | 256° |
| 2026-05-06 06:25 | 51.87296 | 7.82754 | 37798 ft | 446 kts | 256° |
| 2026-05-06 06:26 | 51.85446 | 7.68049 | 37790 ft | 447 kts | 262° |
| 2026-05-06 06:26 | 51.84875 | 7.58013 | 37791 ft | 448 kts | 263° |
| 2026-05-06 06:27 | 51.84384 | 7.47949 | 37793 ft | 448 kts | 263° |
| 2026-05-06 06:27 | 51.83847 | 7.37917 | 37778 ft | 447 kts | 263° |
| 2026-05-06 06:28 | 51.83274 | 7.27896 | 37566 ft | 450 kts | 263° |
| 2026-05-06 06:28 | 51.82977 | 7.22834 | 37061 ft | 452 kts | 263° |
| 2026-05-06 06:28 | 51.82680 | 7.17780 | 36466 ft | 450 kts | 262° |
| 2026-05-06 06:28 | 51.82381 | 7.12747 | 35903 ft | 450 kts | 262° |
| 2026-05-06 06:29 | 51.82085 | 7.07774 | 35297 ft | 450 kts | 262° |
| 2026-05-06 06:29 | 51.81781 | 7.02721 | 34658 ft | 452 kts | 262° |
| 2026-05-06 06:29 | 51.81474 | 6.97643 | 33987 ft | 455 kts | 262° |
| 2026-05-06 06:29 | 51.81163 | 6.92533 | 33218 ft | 458 kts | 262° |
| 2026-05-06 06:30 | 51.80848 | 6.87393 | 32480 ft | 459 kts | 262° |
| 2026-05-06 06:30 | 51.80530 | 6.82238 | 31875 ft | 458 kts | 262° |
| 2026-05-06 06:30 | 51.80216 | 6.77148 | 31399 ft | 454 kts | 263° |
| 2026-05-06 06:30 | 51.79903 | 6.72154 | 30909 ft | 450 kts | 263° |
| 2026-05-06 06:31 | 51.79547 | 6.67147 | 30428 ft | 446 kts | 258° |
| 2026-05-06 06:31 | 51.78818 | 6.62292 | 29887 ft | 443 kts | 250° |
| 2026-05-06 06:31 | 51.77620 | 6.57703 | 29123 ft | 443 kts | 242° |
| 2026-05-06 06:31 | 51.76253 | 6.53287 | 28599 ft | 438 kts | 242° |
| 2026-05-06 06:32 | 51.74886 | 6.48907 | 28104 ft | 434 kts | 242° |
| 2026-05-06 06:32 | 51.73541 | 6.44561 | 27619 ft | 430 kts | 242° |
| 2026-05-06 06:32 | 51.72224 | 6.40259 | 27165 ft | 425 kts | 242° |
| 2026-05-06 06:32 | 51.70928 | 6.36001 | 26686 ft | 421 kts | 242° |
| 2026-05-06 06:33 | 51.69646 | 6.31774 | 26221 ft | 418 kts | 242° |
| 2026-05-06 06:33 | 51.68393 | 6.27644 | 25766 ft | 414 kts | 242° |
| 2026-05-06 06:33 | 51.67128 | 6.23483 | 25325 ft | 410 kts | 242° |
| 2026-05-06 06:33 | 51.65873 | 6.19366 | 24884 ft | 407 kts | 242° |
| 2026-05-06 06:34 | 51.64613 | 6.15304 | 24437 ft | 403 kts | 239° |
| 2026-05-06 06:34 | 51.62871 | 6.11847 | 23988 ft | 397 kts | 219° |
| 2026-05-06 06:34 | 51.60574 | 6.09457 | 23567 ft | 392 kts | 202° |
| 2026-05-06 06:34 | 51.57990 | 6.08164 | 23115 ft | 387 kts | 193° |
| 2026-05-06 06:35 | 51.55370 | 6.07160 | 22612 ft | 384 kts | 192° |
| 2026-05-06 06:35 | 51.52803 | 6.06228 | 22184 ft | 381 kts | 192° |
| 2026-05-06 06:35 | 51.50228 | 6.05298 | 21735 ft | 378 kts | 192° |
| 2026-05-06 06:35 | 51.47677 | 6.04365 | 21300 ft | 374 kts | 193° |
| 2026-05-06 06:36 | 51.45144 | 6.03425 | 20860 ft | 372 kts | 193° |
| 2026-05-06 06:36 | 51.42632 | 6.02483 | 20424 ft | 369 kts | 193° |
| 2026-05-06 06:36 | 51.40142 | 6.01543 | 20009 ft | 366 kts | 193° |
| 2026-05-06 06:36 | 51.37665 | 6.00604 | 19593 ft | 364 kts | 193° |
| 2026-05-06 06:37 | 51.35209 | 5.99672 | 19178 ft | 362 kts | 194° |
| 2026-05-06 06:37 | 51.32764 | 5.98744 | 18763 ft | 360 kts | 194° |
| 2026-05-06 06:37 | 51.30357 | 5.97831 | 18349 ft | 358 kts | 194° |
| 2026-05-06 06:37 | 51.27935 | 5.96913 | 17907 ft | 357 kts | 194° |
| 2026-05-06 06:38 | 51.25517 | 5.95997 | 17443 ft | 356 kts | 194° |
| 2026-05-06 06:38 | 51.23119 | 5.95089 | 17008 ft | 353 kts | 194° |
| 2026-05-06 06:38 | 51.20735 | 5.94188 | 16598 ft | 350 kts | 194° |
| 2026-05-06 06:38 | 51.18372 | 5.93296 | 16182 ft | 347 kts | 194° |
| 2026-05-06 06:39 | 51.16026 | 5.92411 | 15784 ft | 345 kts | 194° |
| 2026-05-06 06:39 | 51.13696 | 5.91534 | 15410 ft | 343 kts | 194° |
| 2026-05-06 06:39 | 51.11380 | 5.90662 | 15015 ft | 342 kts | 194° |
| 2026-05-06 06:39 | 51.09058 | 5.89789 | 14602 ft | 343 kts | 194° |
| 2026-05-06 06:40 | 51.06735 | 5.88916 | 14185 ft | 342 kts | 194° |
| 2026-05-06 06:40 | 51.04444 | 5.88057 | 13790 ft | 340 kts | 194° |
| 2026-05-06 06:40 | 51.02153 | 5.87198 | 13377 ft | 337 kts | 194° |
| 2026-05-06 06:40 | 50.99879 | 5.86347 | 12954 ft | 335 kts | 194° |
| 2026-05-06 06:41 | 50.97623 | 5.85503 | 12546 ft | 332 kts | 194° |
| 2026-05-06 06:41 | 50.95384 | 5.84666 | 12148 ft | 329 kts | 194° |
| 2026-05-06 06:41 | 50.93165 | 5.83838 | 11767 ft | 326 kts | 194° |
| 2026-05-06 06:41 | 50.90965 | 5.83017 | 11371 ft | 324 kts | 194° |
| 2026-05-06 06:42 | 50.88782 | 5.82204 | 10991 ft | 321 kts | 194° |
| 2026-05-06 06:42 | 50.86624 | 5.81400 | 10616 ft | 320 kts | 194° |
| 2026-05-06 06:42 | 50.84476 | 5.80601 | 10438 ft | 312 kts | 194° |
| 2026-05-06 06:42 | 50.82381 | 5.79823 | 10275 ft | 305 kts | 194° |
| 2026-05-06 06:43 | 50.80344 | 5.79068 | 10114 ft | 297 kts | 194° |
| 2026-05-06 06:43 | 50.78361 | 5.78333 | 10005 ft | 287 kts | 194° |
| 2026-05-06 06:43 | 50.76448 | 5.77624 | 9888 ft | 278 kts | 194° |
| 2026-05-06 06:43 | 50.74591 | 5.76936 | 9766 ft | 270 kts | 194° |
| 2026-05-06 06:44 | 50.72790 | 5.76270 | 9470 ft | 269 kts | 194° |
| 2026-05-06 06:44 | 50.70977 | 5.75599 | 9198 ft | 266 kts | 194° |
| 2026-05-06 06:44 | 50.69179 | 5.74935 | 8919 ft | 264 kts | 194° |
| 2026-05-06 06:44 | 50.67393 | 5.74274 | 8638 ft | 263 kts | 194° |
| 2026-05-06 06:45 | 50.65618 | 5.73619 | 8362 ft | 261 kts | 194° |
| 2026-05-06 06:45 | 50.63852 | 5.72968 | 8101 ft | 261 kts | 194° |
| 2026-05-06 06:45 | 50.62085 | 5.72318 | 7840 ft | 261 kts | 194° |
| 2026-05-06 06:45 | 50.60318 | 5.71667 | 7568 ft | 260 kts | 194° |
| 2026-05-06 06:46 | 50.58557 | 5.71023 | 7309 ft | 259 kts | 192° |
| 2026-05-06 06:46 | 50.56795 | 5.71054 | 7133 ft | 253 kts | 163° |
| 2026-05-06 06:46 | 50.55269 | 5.72373 | 6895 ft | 253 kts | 136° |
| 2026-05-06 06:46 | 50.54263 | 5.74643 | 6658 ft | 257 kts | 110° |
| 2026-05-06 06:47 | 50.53985 | 5.77418 | 6400 ft | 262 kts | 83° |
| 2026-05-06 06:47 | 50.54551 | 5.80120 | 6111 ft | 261 kts | 55° |
| 2026-05-06 06:47 | 50.55822 | 5.82051 | 5820 ft | 258 kts | 30° |
| 2026-05-06 06:47 | 50.57504 | 5.82879 | 5453 ft | 257 kts | 357° |
| 2026-05-06 06:48 | 50.59195 | 5.82057 | 5211 ft | 257 kts | 333° |
| 2026-05-06 06:48 | 50.60766 | 5.80686 | 4930 ft | 257 kts | 330° |
| 2026-05-06 06:48 | 50.62295 | 5.79272 | 4704 ft | 253 kts | 330° |
| 2026-05-06 06:48 | 50.63804 | 5.77860 | 4463 ft | 250 kts | 330° |
| 2026-05-06 06:49 | 50.65339 | 5.76599 | 4225 ft | 247 kts | 339° |
| 2026-05-06 06:49 | 50.66980 | 5.75873 | 3993 ft | 243 kts | 352° |
| 2026-05-06 06:49 | 50.68653 | 5.75721 | 3738 ft | 241 kts | 2° |
| 2026-05-06 06:49 | 50.70292 | 5.75980 | 3489 ft | 239 kts | 8° |
| 2026-05-06 06:50 | 50.71923 | 5.76461 | 3239 ft | 238 kts | 12° |
| 2026-05-06 06:50 | 50.73502 | 5.77026 | 3229 ft | 226 kts | 13° |
| 2026-05-06 06:50 | 50.74994 | 5.77596 | 3182 ft | 215 kts | 13° |
| 2026-05-06 06:50 | 50.76447 | 5.78046 | 3086 ft | 211 kts | 359° |
| 2026-05-06 06:51 | 50.77806 | 5.77519 | 3044 ft | 195 kts | 332° |
| 2026-05-06 06:51 | 50.78901 | 5.76321 | 2941 ft | 193 kts | 323° |
| 2026-05-06 06:51 | 50.79965 | 5.74998 | 2723 ft | 194 kts | 323° |
| 2026-05-06 06:51 | 50.81011 | 5.73687 | 2475 ft | 190 kts | 323° |
| 2026-05-06 06:52 | 50.82019 | 5.72429 | 2243 ft | 182 kts | 324° |
| 2026-05-06 06:52 | 50.82995 | 5.71212 | 1993 ft | 175 kts | 323° |
| 2026-05-06 06:52 | 50.84032 | 5.70425 | 1724 ft | 160 kts | 360° |
| 2026-05-06 06:52 | 50.85026 | 5.70946 | 1602 ft | 150 kts | 30° |
| 2026-05-06 06:53 | 50.85928 | 5.71741 | 1410 ft | 147 kts | 29° |
| 2026-05-06 06:53 | 50.86768 | 5.72554 | 1205 ft | 138 kts | 30° |
| 2026-05-06 06:53 | 50.87569 | 5.73358 | 1048 ft | 137 kts | 31° |
| 2026-05-06 06:53 | 50.88330 | 5.74130 | 839 ft | 122 kts | 31° |
| 2026-05-06 06:54 | 50.89030 | 5.74840 | 730 ft | 120 kts | 30° |
| 2026-05-06 06:54 | 50.89757 | 5.75563 | 520 ft | 125 kts | 30° |
| 2026-05-06 06:54 | 50.90459 | 5.76298 | 384 ft | 107 kts | 26° |
| 2026-05-06 06:54 | 50.90919 | 5.76750 | 381 ft | 49 kts | 32° |
| 2026-05-06 06:55 | 50.91053 | 5.76886 | 381 ft | 8 kts | 33° |
| 2026-05-06 06:55 | 50.91106 | 5.76897 | 380 ft | 8 kts | 326° |
| 2026-05-06 06:55 | 50.91136 | 5.76841 | 382 ft | 5 kts | 303° |
| 2026-05-06 06:55 | 50.91154 | 5.76795 | 382 ft | 5 kts | 303° |
| 2026-05-06 06:56 | 50.91173 | 5.76751 | 382 ft | 5 kts | 308° |
| 2026-05-06 06:56 | 50.91206 | 5.76737 | 382 ft | 5 kts | 8° |
| 2026-05-06 06:56 | 50.91239 | 5.76761 | 383 ft | 5 kts | 27° |
| 2026-05-06 06:56 | 50.91274 | 5.76763 | 383 ft | 5 kts | 345° |
| 2026-05-06 06:57 | 50.91304 | 5.76751 | 383 ft | 3 kts | 347° |
| 2026-05-06 06:57 | 50.91315 | 5.76748 | 383 ft | 0 kts | 348° |